Time;durP1;ratioP1;P1;durP2;ratioP2;P2;SDS_P1;SDS_P2;PMS_P1;PMS_P2;Temp;Humidity;BMP_temperature;BMP_pressure;BME280_temperature;BME280_humidity;BME280_pressure;Samples;Min_cycle;Max_cycle;Signal;HPM_P1;HPM_P2
2022/07/10 00:00:42;;;;;;;2.30;0.83;;;17.40;91.30;;;;;;5032456;28;20174;-76
2022/07/10 00:03:08;;;;;;;3.03;0.90;;;17.30;91.40;;;;;;5032344;28;20173;-76
2022/07/10 00:05:35;;;;;;;1.70;0.90;;;17.30;92.10;;;;;;5032884;28;20668;-76
2022/07/10 00:08:01;;;;;;;2.88;0.90;;;17.30;91.80;;;;;;5032704;28;20719;-75
2022/07/10 00:10:28;;;;;;;2.73;0.87;;;17.20;92.00;;;;;;5031203;28;20257;-76
2022/07/10 00:12:54;;;;;;;2.72;0.80;;;17.20;92.20;;;;;;5032959;28;20569;-76
2022/07/10 00:15:20;;;;;;;2.33;0.70;;;17.10;92.50;;;;;;5036497;28;20166;-76
2022/07/10 00:17:46;;;;;;;2.93;1.07;;;17.10;92.50;;;;;;5031310;28;20662;-76
2022/07/10 00:20:13;;;;;;;4.53;0.80;;;17.10;92.80;;;;;;5031216;28;20618;-76
2022/07/10 00:22:39;;;;;;;2.78;0.93;;;17.00;93.00;;;;;;5032737;28;20945;-76
2022/07/10 00:25:07;;;;;;;4.27;0.90;;;17.00;93.30;;;;;;5031948;28;20236;-75
2022/07/10 00:27:33;;;;;;;1.97;0.90;;;16.90;93.30;;;;;;5032536;28;20635;-76
2022/07/10 00:29:59;;;;;;;2.20;0.70;;;16.90;93.60;;;;;;5032231;28;20564;-76
2022/07/10 00:32:25;;;;;;;2.57;0.90;;;16.90;93.80;;;;;;5033105;28;20577;-76
2022/07/10 00:34:51;;;;;;;4.33;0.77;;;16.80;93.90;;;;;;5016249;28;20572;-76
2022/07/10 00:37:17;;;;;;;1.53;0.73;;;16.80;94.10;;;;;;5034444;28;20737;-76
2022/07/10 00:39:46;;;;;;;3.20;0.85;;;16.80;94.30;;;;;;5033838;28;20170;-75
2022/07/10 00:42:14;;;;;;;3.00;0.80;;;16.70;94.70;;;;;;5032110;28;20502;-75
2022/07/10 00:44:41;;;;;;;2.40;0.90;;;16.70;94.70;;;;;;5032570;28;20165;-75
2022/07/10 00:47:09;;;;;;;4.07;0.90;;;16.70;94.90;;;;;;5032306;28;20691;-76
2022/07/10 00:49:35;;;;;;;2.88;0.85;;;16.60;95.00;;;;;;5047753;28;21054;-75
2022/07/10 00:52:12;;;;;;;5.53;0.67;;;16.60;95.10;;;;;;5035423;28;20162;-76
2022/07/10 00:54:39;;;;;;;5.75;0.85;;;16.60;95.80;;;;;;5031769;28;20576;-75
2022/07/10 00:57:07;;;;;;;3.78;1.17;;;16.50;95.50;;;;;;5030601;28;20190;-75
2022/07/10 00:59:33;;;;;;;3.10;0.80;;;16.50;95.70;;;;;;5031590;28;20170;-75
2022/07/10 01:01:59;;;;;;;2.73;1.10;;;16.50;96.00;;;;;;5031668;28;20586;-76
2022/07/10 01:04:25;;;;;;;2.50;0.90;;;16.50;96.00;;;;;;5031407;28;20576;-76
2022/07/10 01:06:51;;;;;;;2.93;0.70;;;16.50;96.10;;;;;;5031603;28;20952;-75
2022/07/10 01:09:17;;;;;;;1.93;0.70;;;16.50;96.40;;;;;;5030516;28;20197;-76
2022/07/10 01:11:43;;;;;;;2.53;0.90;;;16.40;96.40;;;;;;5031354;28;20213;-76
2022/07/10 01:14:10;;;;;;;3.30;1.20;;;16.40;96.60;;;;;;5029673;28;20170;-75
2022/07/10 01:16:36;;;;;;;2.40;0.70;;;16.30;96.70;;;;;;5031603;28;20600;-76
2022/07/10 01:19:02;;;;;;;2.42;0.80;;;16.30;96.80;;;;;;5031557;28;20208;-75
2022/07/10 01:21:36;;;;;;;3.50;0.82;;;16.30;97.00;;;;;;5013710;28;20594;-75
2022/07/10 01:24:10;;;;;;;1.88;0.70;;;16.20;97.30;;;;;;5031269;28;20169;-75
2022/07/10 01:26:38;;;;;;;1.88;0.73;;;16.20;97.60;;;;;;5031786;28;20566;-75
2022/07/10 01:29:06;;;;;;;2.13;0.70;;;16.20;97.50;;;;;;5033708;28;20259;-75
2022/07/10 01:31:32;;;;;;;2.17;0.80;;;16.20;97.80;;;;;;5032175;28;20166;-75
2022/07/10 01:34:01;;;;;;;3.33;0.90;;;16.20;97.90;;;;;;5031622;28;20188;-75
2022/07/10 01:36:29;;;;;;;1.70;0.65;;;16.20;98.20;;;;;;5031071;28;20198;-75
2022/07/10 01:38:56;;;;;;;2.72;0.90;;;16.10;98.30;;;;;;5031367;28;20170;-74
2022/07/10 01:41:23;;;;;;;4.20;1.33;;;16.10;98.40;;;;;;5030361;28;20655;-75
2022/07/10 01:43:50;;;;;;;3.38;1.02;;;16.10;98.60;;;;;;5026679;28;20550;-75
2022/07/10 01:46:16;;;;;;;2.83;0.90;;;16.10;98.80;;;;;;5011686;28;20674;-75
2022/07/10 01:48:42;;;;;;;2.65;0.77;;;16.10;98.90;;;;;;5026857;28;20211;-75
2022/07/10 01:51:10;;;;;;;3.00;0.80;;;16.10;99.10;;;;;;5011328;28;20712;-75
2022/07/10 01:53:37;;;;;;;2.38;0.70;;;16.10;99.30;;;;;;5019302;28;20177;-78
2022/07/10 01:56:06;;;;;;;2.63;0.90;;;16.10;99.40;;;;;;5024761;28;20244;-79
2022/07/10 01:58:32;;;;;;;8.82;1.30;;;16.10;99.60;;;;;;5014385;28;20261;-80
2022/07/10 02:00:58;;;;;;;1.97;0.90;;;16.10;99.80;;;;;;5014017;28;20281;-79
2022/07/10 02:06:08;;;;;;;3.00;0.90;;;16.20;99.90;;;;;;5019034;28;20611;-79
2022/07/10 02:08:34;;;;;;;3.40;0.90;;;16.30;99.90;;;;;;5015426;28;20711;-81
2022/07/10 02:11:00;;;;;;;1.93;1.07;;;16.30;99.90;;;;;;5027350;28;20568;-80
2022/07/10 02:13:27;;;;;;;4.13;0.77;;;16.40;99.90;;;;;;5017621;28;20183;-78
2022/07/10 02:15:56;;;;;;;2.23;0.70;;;16.50;99.90;;;;;;5015215;28;20812;-78
2022/07/10 02:18:23;;;;;;;2.70;0.77;;;16.50;99.90;;;;;;5015261;28;20635;-79
2022/07/10 02:20:50;;;;;;;2.63;0.80;;;16.50;99.90;;;;;;5014731;28;20569;-80
2022/07/10 02:23:15;;;;;;;2.00;0.70;;;16.60;99.90;;;;;;5013699;28;20991;-79
2022/07/10 02:25:41;;;;;;;3.27;0.90;;;16.60;99.90;;;;;;5013604;28;20596;-81
2022/07/10 02:28:10;;;;;;;3.30;0.70;;;16.70;99.90;;;;;;5013542;28;20201;-81
2022/07/10 02:30:36;;;;;;;1.87;0.63;;;16.70;99.90;;;;;;5014758;28;20612;-82
2022/07/10 02:33:02;;;;;;;1.60;0.77;;;16.70;99.90;;;;;;5018622;28;20561;-81
2022/07/10 02:35:28;;;;;;;2.90;0.80;;;16.70;99.90;;;;;;5015073;28;20569;-81
2022/07/10 02:37:54;;;;;;;6.47;1.00;;;16.70;99.90;;;;;;5013831;28;20976;-81
2022/07/10 02:40:20;;;;;;;3.10;0.67;;;16.70;99.90;;;;;;5014490;28;20569;-81
2022/07/10 02:42:45;;;;;;;2.90;0.90;;;16.70;99.90;;;;;;5018258;28;20661;-81
2022/07/10 02:45:11;;;;;;;2.90;1.20;;;16.70;99.90;;;;;;5013163;28;20252;-80
2022/07/10 02:47:37;;;;;;;2.73;0.70;;;16.70;99.90;;;;;;5013181;28;20214;-81
2022/07/10 02:50:03;;;;;;;2.13;0.80;;;16.80;99.90;;;;;;5013996;28;20185;-80
2022/07/10 02:52:32;;;;;;;2.40;0.63;;;16.80;99.90;;;;;;5014611;28;20198;-81
2022/07/10 02:54:58;;;;;;;3.37;0.83;;;16.80;99.90;;;;;;5012485;28;20581;-81
2022/07/10 02:57:24;;;;;;;3.17;0.70;;;16.70;99.90;;;;;;5014507;28;20609;-81
2022/07/10 02:59:51;;;;;;;2.90;0.80;;;16.80;99.90;;;;;;5012846;28;21199;-81
2022/07/10 03:02:17;;;;;;;2.37;0.77;;;16.70;99.90;;;;;;5014403;28;20569;-80
2022/07/10 03:04:43;;;;;;;3.53;0.83;;;16.70;99.90;;;;;;5013161;28;20643;-81
2022/07/10 03:07:08;;;;;;;2.67;0.80;;;16.60;99.90;;;;;;5013102;28;20599;-81
2022/07/10 03:09:34;;;;;;;3.70;0.80;;;16.70;99.90;;;;;;5012727;28;20233;-80
2022/07/10 03:12:00;;;;;;;2.63;0.80;;;16.60;99.90;;;;;;4996370;28;20182;-80
2022/07/10 03:14:26;;;;;;;4.17;0.93;;;16.60;99.90;;;;;;4996335;28;20209;-80
2022/07/10 03:16:52;;;;;;;3.57;0.90;;;16.60;99.90;;;;;;5014355;28;21309;-81
2022/07/10 03:19:18;;;;;;;1.70;0.80;;;16.60;99.90;;;;;;5016488;28;20674;-80
2022/07/10 03:21:45;;;;;;;3.23;0.90;;;16.70;99.90;;;;;;5012504;28;20526;-80
2022/07/10 03:24:11;;;;;;;2.85;0.90;;;16.70;99.90;;;;;;5013364;28;20619;-80
2022/07/10 03:26:37;;;;;;;3.90;0.90;;;16.70;99.90;;;;;;5013806;28;20190;-81
2022/07/10 03:29:03;;;;;;;1.40;0.80;;;16.70;99.90;;;;;;5012521;28;20778;-80
2022/07/10 03:31:28;;;;;;;5.30;1.30;;;16.80;99.90;;;;;;5012278;28;20765;-80
2022/07/10 03:33:54;;;;;;;1.80;0.70;;;16.80;99.90;;;;;;5012160;28;20585;-80
2022/07/10 03:36:20;;;;;;;2.50;0.90;;;16.80;99.90;;;;;;5013658;28;20551;-80
2022/07/10 03:38:46;;;;;;;7.43;0.90;;;16.80;99.90;;;;;;5012390;28;20647;-81
2022/07/10 03:41:13;;;;;;;2.10;0.73;;;16.90;99.90;;;;;;5013333;28;20718;-80
2022/07/10 03:43:39;;;;;;;2.03;0.70;;;16.90;99.90;;;;;;5028280;28;20584;-80
2022/07/10 03:46:05;;;;;;;3.63;0.90;;;16.90;99.90;;;;;;5028850;28;20609;-80
2022/07/10 03:48:32;;;;;;;3.37;0.87;;;16.90;99.90;;;;;;5012295;28;20206;-81
2022/07/10 03:50:58;;;;;;;2.77;0.80;;;16.90;99.90;;;;;;5011987;28;20573;-80
2022/07/10 03:53:24;;;;;;;2.10;0.80;;;16.90;99.90;;;;;;5012930;28;20553;-81
2022/07/10 03:55:50;;;;;;;6.67;0.80;;;16.90;99.90;;;;;;4999239;28;20612;-81
2022/07/10 03:58:16;;;;;;;4.60;1.00;;;17.00;99.90;;;;;;5013252;28;20224;-81
2022/07/10 04:00:43;;;;;;;1.97;1.40;;;17.00;99.90;;;;;;5012985;28;20182;-81
2022/07/10 04:03:08;;;;;;;2.13;0.80;;;17.00;99.90;;;;;;5054574;22;21245;-77
2022/07/10 04:05:35;;;;;;;3.23;1.00;;;17.00;99.90;;;;;;5048121;28;20587;-77
2022/07/10 04:08:02;;;;;;;2.60;0.80;;;17.00;99.90;;;;;;5034616;28;20204;-77
2022/07/10 04:10:29;;;;;;;3.03;0.70;;;17.10;99.90;;;;;;5051325;28;21149;-77
2022/07/10 04:12:55;;;;;;;4.67;0.90;;;17.10;99.90;;;;;;5024357;28;20607;-77
2022/07/10 04:15:22;;;;;;;2.87;0.77;;;17.10;99.90;;;;;;5032823;28;20569;-76
2022/07/10 04:17:49;;;;;;;3.80;1.13;;;17.20;99.90;;;;;;5031851;28;20752;-78
2022/07/10 04:20:15;;;;;;;3.17;0.83;;;17.20;99.90;;;;;;5032444;28;20576;-78
2022/07/10 04:22:41;;;;;;;3.23;0.90;;;17.20;99.90;;;;;;5032419;28;20596;-79
2022/07/10 04:25:08;;;;;;;4.17;0.70;;;17.20;99.90;;;;;;5030959;28;21119;-79
2022/07/10 04:27:34;;;;;;;4.40;0.90;;;17.30;99.90;;;;;;5032352;28;20622;-79
2022/07/10 04:30:00;;;;;;;1.93;0.70;;;17.30;99.90;;;;;;5030872;28;21181;-79
2022/07/10 04:32:27;;;;;;;3.47;0.90;;;17.30;99.90;;;;;;5032400;28;20660;-80
2022/07/10 04:34:54;;;;;;;3.03;1.57;;;17.40;99.90;;;;;;5031516;28;20676;-80
2022/07/10 04:37:20;;;;;;;3.43;0.80;;;17.50;99.90;;;;;;5033038;28;20568;-80
2022/07/10 04:39:45;;;;;;;4.30;0.80;;;17.50;99.90;;;;;;5031932;28;20573;-80
2022/07/10 04:42:11;;;;;;;2.23;0.80;;;17.50;99.90;;;;;;5037299;28;20588;-81
2022/07/10 04:44:37;;;;;;;2.23;0.93;;;17.50;99.90;;;;;;5033376;28;20192;-82
2022/07/10 04:47:04;;;;;;;3.50;0.90;;;17.50;99.90;;;;;;5031262;28;20173;-82
2022/07/10 04:49:30;;;;;;;4.13;0.90;;;17.40;99.90;;;;;;5032670;28;20608;-81
2022/07/10 04:51:56;;;;;;;2.37;0.90;;;17.40;99.90;;;;;;5032178;28;20564;-82
2022/07/10 04:54:22;;;;;;;2.47;1.13;;;17.40;99.90;;;;;;5031508;28;20162;-81
2022/07/10 04:56:49;;;;;;;3.80;1.33;;;17.40;99.90;;;;;;5032778;28;20162;-81
2022/07/10 04:59:15;;;;;;;3.10;0.70;;;17.40;99.90;;;;;;5032539;28;20901;-81
2022/07/10 05:01:41;;;;;;;3.40;0.87;;;17.40;99.90;;;;;;5032144;28;20654;-82
2022/07/10 05:04:08;;;;;;;2.20;0.70;;;17.40;99.90;;;;;;5031587;28;20671;-82
2022/07/10 05:06:34;;;;;;;3.33;0.90;;;17.50;99.90;;;;;;5032019;28;20174;-81
2022/07/10 05:09:00;;;;;;;2.80;1.00;;;17.50;99.90;;;;;;5032093;28;21494;-82
2022/07/10 05:11:27;;;;;;;4.50;0.90;;;17.50;99.90;;;;;;5032735;28;20596;-83
2022/07/10 05:13:53;;;;;;;4.27;0.97;;;17.60;99.90;;;;;;5032193;28;20630;-82
2022/07/10 05:16:19;;;;;;;4.97;0.90;;;17.60;99.90;;;;;;5028913;28;20592;-82
2022/07/10 05:18:45;;;;;;;3.57;0.93;;;17.70;99.90;;;;;;5031937;28;20577;-81
2022/07/10 05:21:11;;;;;;;1.90;0.80;;;17.70;99.90;;;;;;5021037;28;21139;-81
2022/07/10 05:23:40;;;;;;;3.10;0.90;;;17.70;99.90;;;;;;5001976;28;20566;-81
2022/07/10 05:26:06;;;;;;;3.67;0.80;;;17.80;99.90;;;;;;5012294;28;20562;-80
2022/07/10 05:28:32;;;;;;;2.17;1.00;;;17.90;99.90;;;;;;5011768;28;20668;-82
2022/07/10 05:30:58;;;;;;;5.47;0.97;;;17.90;99.90;;;;;;5013299;28;20565;-81
2022/07/10 05:33:26;;;;;;;2.80;0.90;;;17.90;99.90;;;;;;5013801;28;20593;-82
2022/07/10 05:35:52;;;;;;;3.60;1.10;;;17.90;99.90;;;;;;5012470;28;20920;-81
2022/07/10 05:38:17;;;;;;;5.40;1.37;;;18.00;99.90;;;;;;5014622;28;20562;-82
2022/07/10 05:40:43;;;;;;;2.97;1.00;;;18.00;99.90;;;;;;5013521;28;21156;-82
2022/07/10 05:43:10;;;;;;;3.33;0.90;;;18.10;99.90;;;;;;5012897;28;20222;-82
2022/07/10 05:45:36;;;;;;;1.83;0.80;;;18.20;99.90;;;;;;5013221;28;20201;-83
2022/07/10 05:48:02;;;;;;;1.80;1.00;;;18.30;99.90;;;;;;5012325;28;20711;-83
2022/07/10 05:50:28;;;;;;;2.90;0.70;;;18.30;99.90;;;;;;5013458;28;20532;-82
2022/07/10 05:52:54;;;;;;;2.17;0.80;;;18.50;99.90;;;;;;5013608;28;20590;-82
2022/07/10 05:55:20;;;;;;;6.70;1.03;;;18.70;99.90;;;;;;5014026;28;20665;-83
2022/07/10 05:57:45;;;;;;;3.13;0.77;;;18.90;99.90;;;;;;5015285;28;20774;-82
2022/07/10 06:00:12;;;;;;;2.70;0.80;;;19.30;99.90;;;;;;5022598;28;20205;-82
2022/07/10 06:02:41;;;;;;;3.43;0.70;;;20.00;99.90;;;;;;5033447;28;20285;-83
2022/07/10 06:05:07;;;;;;;2.43;0.70;;;21.00;99.90;;;;;;5032963;28;20572;-83
2022/07/10 06:07:34;;;;;;;2.60;0.87;;;22.10;99.90;;;;;;5032722;28;20583;-83
2022/07/10 06:10:04;;;;;;;3.30;0.70;;;23.20;99.90;;;;;;5032745;28;20577;-83
2022/07/10 06:12:30;;;;;;;3.30;0.70;;;24.00;99.90;;;;;;5034087;28;20608;-83
2022/07/10 06:14:56;;;;;;;1.60;0.70;;;24.60;99.90;;;;;;5033603;28;20964;-83
2022/07/10 06:17:22;;;;;;;2.13;0.70;;;24.80;98.60;;;;;;5032163;28;20636;-83
2022/07/10 06:19:48;;;;;;;3.27;0.87;;;24.90;97.40;;;;;;5031368;28;20169;-83
2022/07/10 06:22:33;;;;;;;3.10;0.70;;;24.90;96.20;;;;;;5032765;28;20604;-83
2022/07/10 06:25:03;;;;;;;2.10;0.90;;;24.60;95.00;;;;;;5031320;28;20208;-83
2022/07/10 06:27:29;;;;;;;2.67;0.70;;;24.30;94.40;;;;;;5032523;28;20568;-83
2022/07/10 06:29:55;;;;;;;4.80;1.00;;;24.10;93.90;;;;;;5030675;28;20575;-83
2022/07/10 06:32:21;;;;;;;3.10;0.90;;;23.80;93.00;;;;;;5031224;28;20190;-83
2022/07/10 06:34:47;;;;;;;2.60;0.70;;;23.40;92.70;;;;;;5031832;28;21100;-83
2022/07/10 06:37:13;;;;;;;2.47;0.70;;;23.20;92.80;;;;;;5032868;28;20580;-83
2022/07/10 06:39:38;;;;;;;3.77;0.70;;;22.90;93.10;;;;;;5032683;28;20946;-83
2022/07/10 06:42:06;;;;;;;2.50;0.80;;;22.80;93.40;;;;;;5036809;28;20194;-83
2022/07/10 06:44:39;;;;;;;2.03;0.70;;;22.60;93.40;;;;;;5035880;28;20169;-83
2022/07/10 06:49:54;;;;;;;2.37;0.70;;;22.80;94.30;;;;;;5011515;28;20920;-83
2022/07/10 06:52:21;;;;;;;1.90;0.70;;;22.80;93.90;;;;;;5024089;28;20632;-83
2022/07/10 06:54:47;;;;;;;3.63;1.07;;;22.70;93.50;;;;;;5015438;28;20557;-83
2022/07/10 06:57:13;;;;;;;3.00;0.63;;;22.80;93.70;;;;;;5019634;28;20898;-83
2022/07/10 06:59:39;;;;;;;2.40;0.93;;;22.70;93.70;;;;;;5018853;28;20914;-83
2022/07/10 07:02:05;;;;;;;3.30;0.70;;;22.70;93.50;;;;;;5017658;28;20683;-83
2022/07/10 07:04:31;;;;;;;2.90;0.60;;;22.50;93.10;;;;;;5019228;28;20266;-83
2022/07/10 07:06:57;;;;;;;2.40;0.83;;;22.30;92.90;;;;;;5019846;28;20974;-82
2022/07/10 07:09:23;;;;;;;1.80;1.10;;;22.10;92.60;;;;;;5002080;28;20631;-82
2022/07/10 07:11:49;;;;;;;6.80;0.70;;;21.80;92.60;;;;;;5000546;28;20320;-83
2022/07/10 07:14:14;;;;;;;8.67;1.10;;;21.50;93.10;;;;;;5017049;28;20572;-83
2022/07/10 07:16:45;;;;;;;1.80;0.60;;;21.30;93.20;;;;;;5017518;28;20231;-83
2022/07/10 07:19:17;;;;;;;7.33;0.93;;;21.10;93.00;;;;;;5018721;28;20623;-83
2022/07/10 07:24:28;;;;;;;4.70;0.70;;;20.80;93.60;;;;;;5018845;28;20663;-83
2022/07/10 07:26:55;;;;;;;4.37;1.00;;;20.70;93.90;;;;;;5018952;28;20581;-83
2022/07/10 07:29:20;;;;;;;5.43;1.00;;;20.70;94.30;;;;;;5019217;28;20683;-82
2022/07/10 07:31:47;;;;;;;3.60;1.00;;;20.60;94.50;;;;;;5022450;28;20692;-82
2022/07/10 07:34:12;;;;;;;3.83;0.80;;;20.60;94.60;;;;;;5020375;28;20163;-82
2022/07/10 07:36:38;;;;;;;1.60;0.70;;;20.60;94.60;;;;;;5020646;28;20894;-83
2022/07/10 07:39:04;;;;;;;4.00;0.97;;;20.60;94.70;;;;;;5021730;28;20576;-83
2022/07/10 07:41:30;;;;;;;2.30;1.00;;;20.60;94.90;;;;;;5014487;28;20273;-83
2022/07/10 07:43:56;;;;;;;6.43;1.27;;;20.60;95.10;;;;;;5014132;28;20617;-83
2022/07/10 07:46:22;;;;;;;3.40;0.80;;;20.60;95.20;;;;;;5018615;28;20572;-82
2022/07/10 07:48:47;;;;;;;3.30;0.77;;;20.60;95.30;;;;;;5038146;28;20225;-83
2022/07/10 07:51:13;;;;;;;2.50;0.77;;;20.60;95.50;;;;;;5034688;28;20175;-83
2022/07/10 07:53:39;;;;;;;3.60;1.00;;;20.60;95.60;;;;;;5016216;28;20209;-83
2022/07/10 07:56:05;;;;;;;3.17;1.10;;;20.60;95.60;;;;;;5014766;28;20182;-83
2022/07/10 07:58:31;;;;;;;3.53;0.83;;;20.60;95.60;;;;;;5016625;28;20582;-83
2022/07/10 08:00:58;;;;;;;3.60;0.80;;;20.60;95.50;;;;;;5014215;28;20581;-83
2022/07/10 08:03:24;;;;;;;2.30;0.70;;;20.60;95.60;;;;;;5014141;28;20287;-83
2022/07/10 08:05:50;;;;;;;3.00;0.70;;;20.60;95.70;;;;;;5015284;28;20940;-84
2022/07/10 08:08:15;;;;;;;2.73;0.87;;;20.60;95.80;;;;;;5014277;28;20712;-83
2022/07/10 08:10:41;;;;;;;2.63;0.70;;;20.70;96.00;;;;;;5015294;28;20233;-83
2022/07/10 08:13:07;;;;;;;2.60;1.00;;;20.80;96.20;;;;;;5015362;28;20700;-83
2022/07/10 08:15:34;;;;;;;2.93;1.00;;;20.80;96.10;;;;;;4997791;28;20569;-83
2022/07/10 08:18:02;;;;;;;3.10;0.90;;;20.80;96.00;;;;;;5016666;28;20181;-83
2022/07/10 08:20:28;;;;;;;2.97;0.90;;;20.90;96.10;;;;;;5014508;28;20577;-83
2022/07/10 08:22:54;;;;;;;3.23;0.87;;;20.90;96.10;;;;;;5017349;28;20599;-83
2022/07/10 08:25:20;;;;;;;2.60;0.80;;;21.00;96.20;;;;;;5017230;28;20569;-83
2022/07/10 08:27:46;;;;;;;6.87;1.20;;;21.00;96.00;;;;;;5015519;28;20620;-83
2022/07/10 08:30:12;;;;;;;3.10;0.80;;;21.00;95.80;;;;;;5016242;28;20561;-83
2022/07/10 08:32:39;;;;;;;5.47;1.00;;;21.00;95.70;;;;;;5015884;28;20189;-82
2022/07/10 08:35:06;;;;;;;3.63;1.17;;;21.00;95.90;;;;;;5014521;28;20945;-82
2022/07/10 08:37:43;;;;;;;1.77;0.90;;;21.10;95.90;;;;;;5015020;28;20568;-82
2022/07/10 08:40:10;;;;;;;2.97;0.90;;;21.20;96.00;;;;;;5014116;28;20565;-84
2022/07/10 08:42:36;;;;;;;4.87;1.10;;;21.30;96.20;;;;;;5016078;28;20625;-83
2022/07/10 08:45:02;;;;;;;1.70;0.90;;;21.50;96.30;;;;;;5016079;28;21180;-83
2022/07/10 08:47:31;;;;;;;6.90;1.00;;;21.70;96.30;;;;;;5016646;28;20171;-83
2022/07/10 08:49:57;;;;;;;3.83;0.93;;;21.80;96.00;;;;;;5016855;28;20686;-83
2022/07/10 08:52:37;;;;;;;2.10;1.00;;;21.90;96.00;;;;;;5016233;28;20593;-84
2022/07/10 08:55:04;;;;;;;2.13;0.90;;;22.00;95.40;;;;;;5015713;28;20624;-83
2022/07/10 08:57:31;;;;;;;2.43;0.80;;;22.10;95.20;;;;;;5018818;28;20612;-82
2022/07/10 08:59:57;;;;;;;2.00;0.77;;;22.10;94.80;;;;;;5019086;28;20661;-83
2022/07/10 09:02:23;;;;;;;2.90;0.90;;;22.00;94.40;;;;;;5023178;28;21071;-82
2022/07/10 09:04:49;;;;;;;2.13;0.90;;;22.00;94.50;;;;;;5014935;28;20565;-83
2022/07/10 09:07:17;;;;;;;2.80;0.83;;;22.00;94.40;;;;;;5011050;28;20636;-82
2022/07/10 09:09:56;;;;;;;2.63;0.80;;;22.00;94.50;;;;;;5020344;28;20628;-83
2022/07/10 09:12:23;;;;;;;2.00;0.73;;;22.00;94.40;;;;;;5035729;28;20608;-84
2022/07/10 09:14:50;;;;;;;3.97;0.70;;;22.10;94.40;;;;;;5035975;28;20564;-84
2022/07/10 09:17:17;;;;;;;3.40;0.80;;;22.10;94.60;;;;;;5036455;28;20575;-84
2022/07/10 09:19:43;;;;;;;2.87;0.90;;;22.20;94.90;;;;;;5037010;28;20571;-84
2022/07/10 09:22:10;;;;;;;3.20;0.90;;;22.40;94.90;;;;;;5035552;28;20972;-83
2022/07/10 09:24:40;;;;;;;1.70;0.80;;;22.60;94.90;;;;;;5034720;28;20654;-83
2022/07/10 09:27:06;;;;;;;3.77;1.07;;;22.70;94.80;;;;;;5020465;28;20572;-83
2022/07/10 09:29:43;;;;;;;2.13;0.70;;;22.80;94.50;;;;;;5028913;28;20636;-83
2022/07/10 09:32:09;;;;;;;2.13;0.70;;;22.80;94.30;;;;;;5036513;28;20636;-83
2022/07/10 09:34:48;;;;;;;2.33;0.60;;;22.90;94.40;;;;;;5041026;28;20623;-83
2022/07/10 09:37:26;;;;;;;1.77;0.67;;;22.90;94.20;;;;;;5042996;28;20171;-83
2022/07/10 09:39:57;;;;;;;2.17;0.73;;;23.00;94.20;;;;;;5040764;28;20580;-82
2022/07/10 09:42:33;;;;;;;2.27;0.80;;;23.20;94.40;;;;;;5038813;28;21018;-83
2022/07/10 09:45:12;;;;;;;3.87;0.60;;;23.40;94.00;;;;;;5040989;28;20623;-84
2022/07/10 09:47:38;;;;;;;2.00;0.70;;;23.60;94.00;;;;;;5039107;28;20576;-84
2022/07/10 09:50:19;;;;;;;2.60;1.00;;;23.80;93.90;;;;;;5038662;28;20564;-84
2022/07/10 09:52:46;;;;;;;2.73;1.00;;;24.00;94.30;;;;;;5037189;28;20631;-84
2022/07/10 09:55:13;;;;;;;2.50;0.60;;;24.30;94.20;;;;;;5037828;28;20564;-84
2022/07/10 09:57:43;;;;;;;2.37;0.70;;;24.60;93.60;;;;;;5037412;28;20967;-84
2022/07/10 10:00:11;;;;;;;1.90;0.60;;;24.60;92.80;;;;;;5038299;28;20573;-84
2022/07/10 10:02:39;;;;;;;4.20;0.60;;;24.60;92.10;;;;;;5038211;28;20612;-84
2022/07/10 10:05:06;;;;;;;3.83;0.70;;;24.40;91.80;;;;;;5041840;23;20822;-75
2022/07/10 10:07:36;;;;;;;2.30;0.70;;;24.30;91.50;;;;;;5005059;28;20668;-76
2022/07/10 10:10:06;;;;;;;4.30;0.70;;;24.10;91.30;;;;;;5034241;28;21159;-75
2022/07/10 10:12:42;;;;;;;2.20;0.77;;;24.00;91.40;;;;;;5022852;28;20672;-75
2022/07/10 10:15:10;;;;;;;2.00;0.70;;;23.80;91.50;;;;;;5010996;28;20613;-76
2022/07/10 10:17:38;;;;;;;2.03;0.60;;;23.60;91.50;;;;;;5039255;28;20596;-76
2022/07/10 10:22:50;;;;;;;1.70;0.70;;;23.30;91.60;;;;;;5025757;28;20584;-76
2022/07/10 10:25:19;;;;;;;1.97;0.80;;;23.10;91.60;;;;;;5025894;28;20616;-76
2022/07/10 10:27:45;;;;;;;5.50;0.83;;;22.90;91.60;;;;;;5033101;28;20571;-76
2022/07/10 10:30:11;;;;;;;3.70;0.90;;;22.70;91.80;;;;;;5023879;28;20592;-75
2022/07/10 10:32:40;;;;;;;2.07;0.80;;;22.60;92.10;;;;;;5026338;28;21047;-75
2022/07/10 10:35:09;;;;;;;2.90;0.70;;;22.40;92.30;;;;;;5035477;28;20595;-75
2022/07/10 10:37:44;;;;;;;2.30;0.70;;;22.30;92.60;;;;;;5050319;28;20568;-76
2022/07/10 10:40:30;;;;;;;3.40;0.90;;;22.30;93.10;;;;;;5049560;28;20567;-76
2022/07/10 10:42:55;;;;;;;5.40;0.87;;;22.40;93.60;;;;;;5034103;28;20642;-75
2022/07/10 10:45:37;;;;;;;4.27;0.70;;;22.60;94.20;;;;;;5049843;28;20596;-76
2022/07/10 10:48:06;;;;;;;2.33;0.80;;;22.90;94.60;;;;;;5034496;28;20209;-75
2022/07/10 10:50:48;;;;;;;3.60;0.80;;;23.30;94.90;;;;;;5049472;28;20608;-75
2022/07/10 10:53:22;;;;;;;2.73;0.80;;;23.60;94.70;;;;;;5033634;28;20556;-76
2022/07/10 10:56:00;;;;;;;3.10;1.10;;;24.00;95.00;;;;;;5034255;28;20673;-75
2022/07/10 10:58:28;;;;;;;2.43;0.93;;;24.40;94.20;;;;;;5034173;28;20714;-75
2022/07/10 11:01:22;;;;;;;5.10;0.90;;;24.60;94.20;;;;;;5033866;28;20552;-76
2022/07/10 11:04:14;;;;;;;3.50;0.80;;;24.80;93.20;;;;;;5033531;28;20560;-75
2022/07/10 11:06:48;;;;;;;2.87;1.10;;;24.80;92.80;;;;;;5034156;28;20595;-76
2022/07/10 11:09:28;;;;;;;4.03;0.70;;;24.90;92.60;;;;;;5032596;28;20626;-76
2022/07/10 11:12:12;;;;;;;1.60;0.63;;;24.90;92.40;;;;;;5034443;28;20618;-76
2022/07/10 11:14:42;;;;;;;5.40;1.60;;;24.90;92.20;;;;;;5033463;28;20588;-75
2022/07/10 11:17:09;;;;;;;2.03;0.70;;;24.90;92.00;;;;;;5033752;28;20560;-75
2022/07/10 11:19:35;;;;;;;1.50;0.57;;;24.70;91.70;;;;;;5033815;28;21094;-75
2022/07/10 11:22:17;;;;;;;1.40;0.60;;;24.60;91.40;;;;;;5033737;28;20718;-75
2022/07/10 11:25:19;;;;;;;2.70;0.70;;;24.30;91.20;;;;;;5015319;28;20674;-76
2022/07/10 11:28:08;;;;;;;3.83;0.63;;;24.20;91.40;;;;;;5048935;28;20969;-75
2022/07/10 11:30:43;;;;;;;2.93;0.60;;;24.00;91.50;;;;;;5033482;28;21145;-76
2022/07/10 11:33:09;;;;;;;1.40;0.60;;;23.90;91.50;;;;;;5033085;28;20563;-75
2022/07/10 11:35:36;;;;;;;1.23;0.50;;;23.80;91.60;;;;;;5033585;28;20600;-76
2022/07/10 11:38:01;;;;;;;1.30;0.50;;;23.60;91.50;;;;;;5033266;28;21181;-76
2022/07/10 11:40:27;;;;;;;1.50;0.50;;;23.50;91.70;;;;;;5033197;28;20567;-76
2022/07/10 11:42:56;;;;;;;2.70;0.57;;;23.40;91.70;;;;;;5015805;28;20960;-77
2022/07/10 11:45:22;;;;;;;2.07;0.50;;;23.20;91.80;;;;;;5033275;28;20616;-76
2022/07/10 11:47:57;;;;;;;1.40;0.50;;;23.10;91.90;;;;;;5034148;28;20608;-77
2022/07/10 11:50:23;;;;;;;1.60;0.60;;;23.00;92.10;;;;;;5031938;28;20575;-76
2022/07/10 11:52:50;;;;;;;2.63;0.70;;;22.90;92.40;;;;;;5048597;28;20611;-76
2022/07/10 11:55:17;;;;;;;1.40;0.60;;;22.70;92.50;;;;;;5032738;28;20624;-76
2022/07/10 11:57:48;;;;;;;2.47;0.60;;;22.60;92.60;;;;;;5032007;28;20564;-78
2022/07/10 12:00:29;;;;;;;1.50;0.80;;;22.50;92.80;;;;;;5032884;28;20565;-77
2022/07/10 12:02:56;;;;;;;1.50;0.70;;;22.40;93.20;;;;;;5032751;28;20615;-77
2022/07/10 12:05:32;;;;;;;2.23;1.33;;;22.30;93.20;;;;;;5015067;28;20615;-77
2022/07/10 12:07:58;;;;;;;2.10;0.70;;;22.30;93.60;;;;;;5032974;28;20975;-77
2022/07/10 12:10:31;;;;;;;2.13;0.70;;;22.30;93.60;;;;;;5034893;28;20661;-77
2022/07/10 12:13:11;;;;;;;1.70;0.70;;;22.30;93.90;;;;;;5047839;28;21111;-77
2022/07/10 12:15:38;;;;;;;2.73;0.80;;;22.20;94.10;;;;;;5032893;28;20975;-75
2022/07/10 12:18:06;;;;;;;2.23;0.60;;;22.20;94.00;;;;;;4998580;28;21451;-75
2022/07/10 12:20:47;;;;;;;4.03;0.50;;;22.20;94.20;;;;;;5032168;28;21178;-75
2022/07/10 12:23:16;;;;;;;2.80;0.60;;;22.10;94.30;;;;;;5014478;28;20584;-75
2022/07/10 12:25:43;;;;;;;6.43;1.17;;;22.10;94.40;;;;;;5035771;28;21163;-75
2022/07/10 12:28:09;;;;;;;2.40;0.60;;;22.10;94.50;;;;;;5032473;28;20612;-75
2022/07/10 12:30:47;;;;;;;1.40;0.50;;;22.10;94.70;;;;;;5032119;28;20567;-77
2022/07/10 12:33:20;;;;;;;2.90;0.70;;;22.00;94.70;;;;;;5047289;28;20239;-75
2022/07/10 12:35:56;;;;;;;2.53;0.80;;;22.00;94.80;;;;;;5032096;28;20989;-75
2022/07/10 12:38:26;;;;;;;1.40;0.70;;;21.90;94.80;;;;;;5031453;28;20575;-75
2022/07/10 12:41:10;;;;;;;1.80;0.60;;;21.90;94.80;;;;;;5047248;28;20569;-75
2022/07/10 12:43:36;;;;;;;3.33;0.60;;;21.80;94.90;;;;;;5031740;28;20672;-75
2022/07/10 12:46:15;;;;;;;1.80;0.60;;;21.80;95.10;;;;;;5047359;28;20711;-75
2022/07/10 12:49:03;;;;;;;1.40;0.60;;;21.80;95.40;;;;;;5031845;28;20626;-77
2022/07/10 12:51:44;;;;;;;1.60;0.60;;;21.80;95.70;;;;;;5031734;28;20576;-75
2022/07/10 12:54:33;;;;;;;3.13;0.70;;;21.90;96.00;;;;;;5013869;28;20663;-75
2022/07/10 12:57:02;;;;;;;3.40;1.00;;;22.00;96.30;;;;;;5031838;28;20586;-76
2022/07/10 12:59:29;;;;;;;2.23;1.20;;;22.20;96.30;;;;;;5047095;28;20567;-75
2022/07/10 13:01:55;;;;;;;2.20;0.80;;;22.30;96.20;;;;;;5049280;28;20928;-76
2022/07/10 13:04:27;;;;;;;2.83;0.90;;;22.30;96.00;;;;;;5031193;28;20662;-77